KAFN/AFN METAR and TAF weather

Enter ICAO airport designator
Station Type Date Time Source
KAFN METAR 2020/01/22 11:52 UTC NOAA

KAFN 221152Z AUTO 00000KT 10SM CLR M17/M19 A3035 RMK AO2 SLP310 T11721194 11100 21172 53009


Station Type Date Time Source
KAFN Decoded METAR 2020/01/22 11:52 UTC NOAA

JAFFREY MUNI-SILVER RANCH, NH, United States (KAFN) 42-48N 72-00W 313M
Jan 22, 2020 - 06:52 AM EST / 2020.01.22 1152 UTC
Wind: Calm:0
Visibility: 10 mile(s):0
Sky conditions: clear
Temperature: 1.0 F (-17.2 C)
Dew Point: -2.9 F (-19.4 C)
Relative Humidity: 82%
Pressure (altimeter): 30.35 in. Hg (1027 hPa)
Pressure tendency: 0.03 inches (0.9 hPa) higher than three hours ago
ob: KAFN 221152Z AUTO 00000KT 10SM CLR M17/M19 A3035 RMK AO2 SLP310 T11721194 11100 21172 53009
cycle: 12

Station Type Date Time Source
KAFN TAF UTC NOAA

Error!

Example: see airport list